Time;durP1;ratioP1;P1;durP2;ratioP2;P2;SDS_P1;SDS_P2;PMS_P1;PMS_P2;Temp;Humidity;BMP_temperature;BMP_pressure;BME280_temperature;BME280_humidity;BME280_pressure;Samples;Min_cycle;Max_cycle;Signal;HPM_P1;HPM_P2
2021/07/13 05:59:46;;;;;;;15.02;13.50;;;;;;;;;;10540733;28;20058;-85
2021/07/13 06:05:00;;;;;;;22.73;20.42;;;;;;;;;;10539640;28;20033;-88
2021/07/13 06:15:43;;;;;;;19.17;17.38;;;;;;;;;;10493598;28;20017;-88
2021/07/13 06:26:56;;;;;;;26.65;24.20;;;;;;;;;;10493394;28;20024;-88
2021/07/13 06:43:44;;;;;;;25.67;23.38;;;;;;;;;;10493631;28;20039;-88
2021/07/13 06:48:53;;;;;;;26.52;23.95;;;;;;;;;;10493831;28;20035;-88
2021/07/13 06:53:53;;;;;;;25.63;23.30;;;;;;;;;;10493195;28;20035;-87
2021/07/13 06:59:13;;;;;;;25.15;22.92;;;;;;;;;;10492892;28;20128;-88
2021/07/13 07:04:14;;;;;;;17.13;15.55;;;;;;;;;;10471286;28;20407;-85
2021/07/13 07:09:15;;;;;;;25.23;22.85;;;;;;;;;;10466143;28;20030;-86
2021/07/13 07:14:16;;;;;;;17.55;16.00;;;;;;;;;;10472643;28;20040;-85
2021/07/13 07:19:17;;;;;;;18.13;16.48;;;;;;;;;;10476348;28;20125;-84
2021/07/13 07:24:18;;;;;;;15.95;14.43;;;;;;;;;;10473286;28;20363;-85
2021/07/13 07:29:19;;;;;;;13.30;12.10;;;;;;;;;;10469007;28;20032;-86
2021/07/13 07:34:20;;;;;;;15.73;14.32;;;;;;;;;;10463623;28;20029;-86
2021/07/13 07:39:21;;;;;;;15.68;14.32;;;;;;;;;;10462156;28;20035;-86
2021/07/13 07:44:23;;;;;;;15.05;13.75;;;;;;;;;;10461816;28;20039;-87
2021/07/13 07:49:24;;;;;;;19.90;18.20;;;;;;;;;;10461906;28;20551;-85
2021/07/13 07:54:25;;;;;;;18.20;16.55;;;;;;;;;;10465670;28;20052;-86
2021/07/13 07:59:26;;;;;;;20.65;18.70;;;;;;;;;;10464156;28;20035;-85
2021/07/13 08:04:27;;;;;;;19.10;17.30;;;;;;;;;;10466023;28;20025;-86
2021/07/13 08:09:28;;;;;;;17.88;16.35;;;;;;;;;;10466451;28;20455;-85
2021/07/13 08:14:29;;;;;;;16.35;14.95;;;;;;;;;;10466060;28;20483;-85
2021/07/13 08:19:32;;;;;;;21.17;19.25;;;;;;;;;;10467596;28;20060;-86
2021/07/13 08:24:33;;;;;;;18.83;17.23;;;;;;;;;;10465847;28;20025;-85
2021/07/13 08:29:34;;;;;;;20.70;18.80;;;;;;;;;;10463592;28;20060;-85
2021/07/13 08:34:35;;;;;;;26.67;24.35;;;;;;;;;;10466966;28;20025;-84
2021/07/13 08:39:36;;;;;;;20.15;18.35;;;;;;;;;;10468352;28;20021;-85
2021/07/13 08:44:37;;;;;;;22.40;20.33;;;;;;;;;;10467180;28;20029;-86
2021/07/13 08:49:38;;;;;;;21.70;19.60;;;;;;;;;;10463532;28;20052;-85
2021/07/13 08:54:39;;;;;;;17.75;16.20;;;;;;;;;;10464929;28;20035;-85
2021/07/13 08:59:40;;;;;;;28.63;26.02;;;;;;;;;;10465749;28;20455;-85
2021/07/13 09:04:41;;;;;;;16.83;15.40;;;;;;;;;;10465263;28;20028;-85
2021/07/13 09:09:47;;;;;;;16.10;14.60;;;;;;;;;;10470151;28;20035;-85
2021/07/13 09:14:59;;;;;;;16.83;15.32;;;;;;;;;;10483106;28;20024;-82
2021/07/13 09:20:09;;;;;;;21.30;19.30;;;;;;;;;;10492675;28;20029;-86
2021/07/13 09:25:24;;;;;;;19.60;17.88;;;;;;;;;;10466442;28;20048;-85
2021/07/13 09:30:30;;;;;;;22.05;20.05;;;;;;;;;;10464669;28;20479;-85
2021/07/13 09:35:31;;;;;;;23.58;21.48;;;;;;;;;;10463633;28;20108;-85
2021/07/13 09:40:38;;;;;;;13.65;12.50;;;;;;;;;;10464023;28;20047;-85
2021/07/13 09:45:39;;;;;;;15.55;14.10;;;;;;;;;;10484041;22;20499;-80
2021/07/13 09:50:49;;;;;;;15.25;13.95;;;;;;;;;;10402152;28;20037;-81
2021/07/13 09:55:51;;;;;;;15.13;13.82;;;;;;;;;;10403789;28;20018;-81
2021/07/13 10:00:57;;;;;;;13.02;11.88;;;;;;;;;;10407862;28;20076;-83
2021/07/13 10:05:59;;;;;;;12.00;10.98;;;;;;;;;;10425246;28;20474;-84
2021/07/13 10:11:00;;;;;;;18.20;16.70;;;;;;;;;;10407789;28;20097;-84
2021/07/13 10:16:01;;;;;;;12.55;11.43;;;;;;;;;;10409451;28;20037;-86
2021/07/13 10:21:02;;;;;;;13.45;12.25;;;;;;;;;;10405941;28;20163;-84
2021/07/13 10:26:06;;;;;;;15.60;14.15;;;;;;;;;;10431611;28;20036;-83
2021/07/13 10:31:07;;;;;;;12.10;10.98;;;;;;;;;;10408048;28;20116;-85
2021/07/13 10:36:27;;;;;;;11.85;9.05;;;;;;;;;;10402774;28;20045;-82
2021/07/13 10:41:31;;;;;;;10.52;9.63;;;;;;;;;;10412608;28;20117;-82
2021/07/13 10:46:32;;;;;;;10.90;10.00;;;;;;;;;;10413282;28;20065;-81
2021/07/13 10:51:39;;;;;;;13.73;12.60;;;;;;;;;;10411919;28;20029;-83
2021/07/13 10:56:40;;;;;;;11.02;9.90;;;;;;;;;;10413093;28;20033;-82
2021/07/13 11:01:43;;;;;;;9.20;8.48;;;;;;;;;;10412079;28;20017;-82
2021/07/13 11:06:53;;;;;;;12.77;11.77;;;;;;;;;;10411348;28;20018;-82
2021/07/13 11:12:01;;;;;;;11.90;10.85;;;;;;;;;;10412893;28;20025;-81
2021/07/13 11:17:02;;;;;;;10.73;9.73;;;;;;;;;;10412364;28;20475;-83
2021/07/13 11:22:04;;;;;;;12.48;11.48;;;;;;;;;;10412053;28;20222;-85
2021/07/13 11:27:35;;;;;;;13.93;12.73;;;;;;;;;;10431875;28;20029;-82
2021/07/13 11:32:39;;;;;;;10.75;9.75;;;;;;;;;;10412578;28;20021;-81
2021/07/13 11:37:40;;;;;;;11.25;10.32;;;;;;;;;;10432459;28;20528;-83
2021/07/13 11:42:41;;;;;;;11.65;10.75;;;;;;;;;;10411896;28;20037;-83
2021/07/13 11:47:42;;;;;;;11.98;10.95;;;;;;;;;;10427896;28;20399;-83
2021/07/13 11:52:44;;;;;;;13.30;12.13;;;;;;;;;;10417222;28;20026;-86
2021/07/13 11:57:51;;;;;;;11.68;10.77;;;;;;;;;;10411558;28;20436;-87
2021/07/13 12:02:54;;;;;;;9.75;8.95;;;;;;;;;;10413044;28;20498;-86
2021/07/13 12:07:55;;;;;;;9.32;8.52;;;;;;;;;;10408258;28;20041;-86
2021/07/13 12:13:02;;;;;;;10.70;9.77;;;;;;;;;;10407709;28;20038;-85
2021/07/13 12:18:03;;;;;;;9.32;8.63;;;;;;;;;;10410430;28;20022;-84
2021/07/13 12:23:04;;;;;;;9.27;8.48;;;;;;;;;;10434721;28;20067;-83
2021/07/13 12:28:34;;;;;;;11.93;10.93;;;;;;;;;;10408186;28;20029;-84
2021/07/13 12:33:35;;;;;;;8.85;8.15;;;;;;;;;;10424585;28;20044;-86
2021/07/13 12:38:37;;;;;;;10.25;9.45;;;;;;;;;;10427598;28;20021;-86
2021/07/13 12:43:38;;;;;;;12.27;11.25;;;;;;;;;;10427739;28;20026;-86
2021/07/13 12:48:39;;;;;;;12.50;11.32;;;;;;;;;;10409736;28;20033;-86
2021/07/13 12:53:40;;;;;;;12.15;11.15;;;;;;;;;;10429523;28;20050;-80
2021/07/13 12:58:41;;;;;;;10.38;9.38;;;;;;;;;;10410891;28;20025;-82
2021/07/13 13:03:44;;;;;;;10.80;9.90;;;;;;;;;;10408657;28;20057;-82
2021/07/13 13:08:47;;;;;;;10.43;9.48;;;;;;;;;;10407850;28;20033;-87
2021/07/13 13:13:48;;;;;;;11.25;10.35;;;;;;;;;;10411933;28;20433;-83
2021/07/13 13:18:50;;;;;;;12.88;11.77;;;;;;;;;;10412604;28;20029;-87
2021/07/13 13:23:52;;;;;;;10.63;9.73;;;;;;;;;;10409733;28;20030;-85
2021/07/13 13:28:53;;;;;;;16.38;14.95;;;;;;;;;;10407807;28;20395;-86
2021/07/13 13:33:54;;;;;;;11.65;10.65;;;;;;;;;;10409323;28;20022;-86
2021/07/13 13:39:01;;;;;;;11.52;10.52;;;;;;;;;;10407963;28;20372;-85
2021/07/13 13:44:03;;;;;;;11.38;10.40;;;;;;;;;;10424583;28;20144;-84
2021/07/13 13:49:07;;;;;;;13.77;12.70;;;;;;;;;;10392799;28;20029;-82
2021/07/13 13:54:09;;;;;;;10.90;10.00;;;;;;;;;;10428330;28;20025;-87
2021/07/13 13:59:10;;;;;;;12.07;10.93;;;;;;;;;;10409090;28;20030;-85
2021/07/13 14:04:11;;;;;;;11.98;10.88;;;;;;;;;;10408383;28;20437;-86
2021/07/13 14:09:12;;;;;;;12.15;11.05;;;;;;;;;;10408732;28;20470;-82
2021/07/13 14:14:14;;;;;;;11.50;10.50;;;;;;;;;;10413447;28;20032;-84
2021/07/13 14:19:15;;;;;;;10.27;9.50;;;;;;;;;;10417284;28;20022;-84
2021/07/13 14:24:16;;;;;;;18.55;17.02;;;;;;;;;;10431584;28;20065;-83
2021/07/13 14:29:16;;;;;;;13.18;12.05;;;;;;;;;;10412402;28;20044;-84
2021/07/13 14:34:18;;;;;;;14.13;12.88;;;;;;;;;;10441631;28;20045;-86
2021/07/13 14:39:19;;;;;;;14.80;13.50;;;;;;;;;;10415542;28;20425;-82
2021/07/13 14:44:23;;;;;;;14.63;13.23;;;;;;;;;;10418677;28;20041;-82
2021/07/13 14:49:24;;;;;;;13.23;11.93;;;;;;;;;;10432303;28;20033;-82
2021/07/13 14:54:25;;;;;;;11.90;10.90;;;;;;;;;;10425035;28;20033;-83
2021/07/13 14:59:26;;;;;;;14.90;13.63;;;;;;;;;;10440619;28;20529;-81
2021/07/13 15:04:27;;;;;;;11.98;10.98;;;;;;;;;;10423265;28;20029;-82
2021/07/13 15:09:28;;;;;;;16.35;15.05;;;;;;;;;;10413260;28;20030;-82
2021/07/13 15:14:29;;;;;;;14.25;13.15;;;;;;;;;;10415134;28;20419;-83
2021/07/13 15:19:31;;;;;;;12.73;11.63;;;;;;;;;;10428040;28;20030;-85
2021/07/13 15:24:32;;;;;;;11.43;10.45;;;;;;;;;;10421665;28;20115;-85
2021/07/13 15:29:33;;;;;;;11.07;10.05;;;;;;;;;;10413934;28;20028;-86
2021/07/13 15:34:35;;;;;;;15.13;13.93;;;;;;;;;;10425872;28;20032;-84
2021/07/13 15:39:36;;;;;;;10.05;9.23;;;;;;;;;;10426421;28;20076;-84
2021/07/13 15:44:37;;;;;;;13.00;11.73;;;;;;;;;;10431417;22;20034;-86
2021/07/13 15:49:39;;;;;;;13.25;12.15;;;;;;;;;;10429551;28;20033;-86
2021/07/13 15:54:40;;;;;;;11.85;10.85;;;;;;;;;;10429605;28;20056;-87
2021/07/13 15:59:45;;;;;;;15.45;14.15;;;;;;;;;;10430302;28;20037;-85
2021/07/13 16:04:46;;;;;;;11.10;10.10;;;;;;;;;;10426605;28;20040;-85
2021/07/13 16:09:47;;;;;;;12.82;11.77;;;;;;;;;;10427527;28;20471;-85
2021/07/13 16:14:48;;;;;;;10.63;9.77;;;;;;;;;;10426111;28;20030;-85
2021/07/13 16:19:51;;;;;;;19.27;15.70;;;;;;;;;;10422610;28;20030;-84
2021/07/13 16:54:11;;;;;;;14.52;13.38;;;;;;;;;;10250835;28;20048;-89
2021/07/13 17:22:33;;;;;;;13.23;12.13;;;;;;;;;;10197024;29;20035;-88
2021/07/13 17:34:09;;;;;;;18.73;17.23;;;;;;;;;;10273256;28;20030;-89
2021/07/13 17:39:10;;;;;;;19.60;17.98;;;;;;;;;;10341768;28;20028;-89
2021/07/13 17:44:11;;;;;;;19.50;17.85;;;;;;;;;;10411816;28;20360;-89
2021/07/13 17:49:12;;;;;;;13.55;12.45;;;;;;;;;;10421407;28;20025;-89
2021/07/13 17:54:13;;;;;;;15.85;14.30;;;;;;;;;;10416500;28;20491;-89
2021/07/13 17:59:14;;;;;;;15.75;14.52;;;;;;;;;;10416420;28;20042;-89
2021/07/13 18:04:16;;;;;;;20.40;18.70;;;;;;;;;;10412517;28;20053;-89
2021/07/13 18:09:17;;;;;;;15.10;13.90;;;;;;;;;;10409955;28;20022;-89
2021/07/13 18:14:18;;;;;;;17.67;16.17;;;;;;;;;;10406270;28;20080;-89
2021/07/13 18:19:19;;;;;;;14.13;13.02;;;;;;;;;;10403985;28;20032;-88
2021/07/13 18:24:20;;;;;;;19.13;17.50;;;;;;;;;;10407235;28;20471;-89
2021/07/13 18:29:21;;;;;;;13.38;12.30;;;;;;;;;;10406809;28;20032;-89
2021/07/13 18:34:22;;;;;;;15.52;14.30;;;;;;;;;;10408975;28;20079;-89
2021/07/13 18:39:23;;;;;;;11.30;10.38;;;;;;;;;;10406444;28;20027;-89
2021/07/13 18:44:24;;;;;;;16.83;15.52;;;;;;;;;;10406140;28;20143;-88
2021/07/13 18:49:25;;;;;;;14.38;13.07;;;;;;;;;;10405022;28;20111;-89
2021/07/13 18:54:26;;;;;;;13.52;12.52;;;;;;;;;;10407028;28;20084;-89
2021/07/13 18:59:28;;;;;;;14.43;13.32;;;;;;;;;;10407069;28;20468;-89
2021/07/13 19:04:29;;;;;;;17.17;15.75;;;;;;;;;;10410519;28;20372;-88
2021/07/13 19:09:30;;;;;;;15.65;14.15;;;;;;;;;;10409650;28;20017;-88
2021/07/13 19:14:31;;;;;;;16.27;14.88;;;;;;;;;;10411198;28;20021;-88
2021/07/13 19:19:32;;;;;;;16.35;15.00;;;;;;;;;;10408759;28;20087;-88
2021/07/13 19:24:33;;;;;;;17.70;16.23;;;;;;;;;;10421934;28;20121;-88
2021/07/13 19:29:34;;;;;;;16.02;14.63;;;;;;;;;;10408155;28;20021;-88
2021/07/13 19:34:51;;;;;;;13.05;11.90;;;;;;;;;;10404225;28;20032;-88
2021/07/13 19:39:52;;;;;;;14.90;13.60;;;;;;;;;;10413342;28;20056;-88
2021/07/13 19:44:53;;;;;;;14.32;13.13;;;;;;;;;;10428130;28;20064;-88
2021/07/13 19:49:54;;;;;;;12.63;11.52;;;;;;;;;;10409586;28;20026;-88
2021/07/13 19:54:55;;;;;;;15.48;14.20;;;;;;;;;;10432952;28;20100;-86
2021/07/13 19:59:56;;;;;;;15.30;13.90;;;;;;;;;;10450297;28;20044;-88
2021/07/13 20:04:57;;;;;;;12.32;11.32;;;;;;;;;;10450282;28;20025;-88
2021/07/13 20:09:58;;;;;;;14.38;13.18;;;;;;;;;;10418481;28;20049;-88
2021/07/13 20:14:59;;;;;;;12.93;11.70;;;;;;;;;;10410985;28;20028;-87
